sensor_id;sensor_type;location;lat;lon;timestamp;pressure;altitude;pressure_sealevel;temperature;humidity
81802;BME280;71199;52.490;5.448;2023-12-20T00:02:22;101560.50;;;4.43;100.00
81802;BME280;71199;52.490;5.448;2023-12-20T00:04:48;101569.88;;;4.39;100.00
81802;BME280;71199;52.490;5.448;2023-12-20T00:07:13;101562.47;;;4.41;100.00
81802;BME280;71199;52.490;5.448;2023-12-20T00:09:39;101568.22;;;4.50;100.00
81802;BME280;71199;52.490;5.448;2023-12-20T00:12:04;101560.63;;;4.42;100.00
81802;BME280;71199;52.490;5.448;2023-12-20T00:14:30;101572.72;;;4.38;100.00
81802;BME280;71199;52.490;5.448;2023-12-20T00:16:55;101559.81;;;4.29;100.00
81802;BME280;71199;52.490;5.448;2023-12-20T00:19:21;101562.41;;;4.30;100.00
81802;BME280;71199;52.490;5.448;2023-12-20T00:21:46;101559.91;;;4.27;100.00
81802;BME280;71199;52.490;5.448;2023-12-20T00:24:11;101560.44;;;4.32;100.00
81802;BME280;71199;52.490;5.448;2023-12-20T00:26:37;101560.63;;;4.42;100.00
81802;BME280;71199;52.490;5.448;2023-12-20T00:29:02;101554.06;;;4.44;100.00
81802;BME280;71199;52.490;5.448;2023-12-20T00:31:27;101562.19;;;4.57;100.00
81802;BME280;71199;52.490;5.448;2023-12-20T00:33:53;101556.56;;;4.72;100.00
81802;BME280;71199;52.490;5.448;2023-12-20T00:36:18;101558.06;;;4.76;100.00
81802;BME280;71199;52.490;5.448;2023-12-20T00:38:43;101557.31;;;4.85;100.00
81802;BME280;71199;52.490;5.448;2023-12-20T00:41:09;101552.00;;;4.83;100.00
81802;BME280;71199;52.490;5.448;2023-12-20T00:43:34;101548.25;;;4.73;100.00
81802;BME280;71199;52.490;5.448;2023-12-20T00:45:59;101533.13;;;4.69;100.00
81802;BME280;71199;52.490;5.448;2023-12-20T00:48:25;101552.19;;;4.69;100.00
81802;BME280;71199;52.490;5.448;2023-12-20T00:50:52;101543.81;;;4.72;100.00
81802;BME280;71199;52.490;5.448;2023-12-20T00:53:17;101548.13;;;4.75;100.00
81802;BME280;71199;52.490;5.448;2023-12-20T00:55:43;101548.25;;;4.73;100.00
81802;BME280;71199;52.490;5.448;2023-12-20T00:58:10;101554.63;;;4.61;100.00
81802;BME280;71199;52.490;5.448;2023-12-20T01:00:35;101555.16;;;4.66;100.00
81802;BME280;71199;52.490;5.448;2023-12-20T01:03:01;101561.47;;;4.67;100.00
81802;BME280;71199;52.490;5.448;2023-12-20T01:05:26;101556.13;;;4.65;100.00
81802;BME280;71199;52.490;5.448;2023-12-20T01:07:51;101558.91;;;4.76;100.00
81802;BME280;71199;52.490;5.448;2023-12-20T01:10:17;101554.44;;;4.75;100.00
81802;BME280;71199;52.490;5.448;2023-12-20T01:12:43;101543.22;;;4.80;100.00
81802;BME280;71199;52.490;5.448;2023-12-20T01:15:09;101543.59;;;4.87;100.00
81802;BME280;71199;52.490;5.448;2023-12-20T01:17:34;101529.25;;;4.96;100.00
81802;BME280;71199;52.490;5.448;2023-12-20T01:20:00;101533.84;;;4.95;100.00
81802;BME280;71199;52.490;5.448;2023-12-20T01:22:25;101538.16;;;4.98;100.00
81802;BME280;71199;52.490;5.448;2023-12-20T01:24:51;101541.63;;;4.89;100.00
81802;BME280;71199;52.490;5.448;2023-12-20T01:27:16;101535.91;;;4.92;100.00
81802;BME280;71199;52.490;5.448;2023-12-20T01:29:41;101539.81;;;5.00;100.00
81802;BME280;71199;52.490;5.448;2023-12-20T01:32:07;101536.34;;;4.98;100.00
81802;BME280;71199;52.490;5.448;2023-12-20T01:34:32;101532.13;;;5.05;100.00
81802;BME280;71199;52.490;5.448;2023-12-20T01:36:58;101533.34;;;5.01;100.00
81802;BME280;71199;52.490;5.448;2023-12-20T01:39:23;101528.97;;;4.88;100.00
81802;BME280;71199;52.490;5.448;2023-12-20T01:41:49;101534.94;;;4.93;100.00
81802;BME280;71199;52.490;5.448;2023-12-20T01:44:14;101532.75;;;5.09;100.00
81802;BME280;71199;52.490;5.448;2023-12-20T01:46:40;101538.22;;;5.20;100.00
81802;BME280;71199;52.490;5.448;2023-12-20T01:49:06;101535.38;;;5.22;100.00
81802;BME280;71199;52.490;5.448;2023-12-20T01:51:32;101537.97;;;5.23;100.00
81802;BME280;71199;52.490;5.448;2023-12-20T01:53:59;101536.38;;;5.21;100.00
81802;BME280;71199;52.490;5.448;2023-12-20T01:56:26;101541.69;;;5.22;100.00
81802;BME280;71199;52.490;5.448;2023-12-20T01:58:54;101527.56;;;5.29;100.00
81802;BME280;71199;52.490;5.448;2023-12-20T02:01:21;101528.09;;;5.34;100.00
81802;BME280;71199;52.490;5.448;2023-12-20T02:03:46;101530.56;;;5.48;100.00
81802;BME280;71199;52.490;5.448;2023-12-20T02:06:12;101539.34;;;5.52;100.00
81802;BME280;71199;52.490;5.448;2023-12-20T02:08:37;101531.81;;;5.44;100.00
81802;BME280;71199;52.490;5.448;2023-12-20T02:11:03;101521.50;;;5.36;100.00
81802;BME280;71199;52.490;5.448;2023-12-20T02:13:30;101514.81;;;5.29;100.00
81802;BME280;71199;52.490;5.448;2023-12-20T02:15:56;101518.41;;;5.30;100.00
81802;BME280;71199;52.490;5.448;2023-12-20T02:18:21;101518.16;;;5.33;100.00
81802;BME280;71199;52.490;5.448;2023-12-20T02:20:47;101515.44;;;5.44;100.00
81802;BME280;71199;52.490;5.448;2023-12-20T02:23:12;101501.44;;;5.49;100.00
81802;BME280;71199;52.490;5.448;2023-12-20T02:25:38;101510.72;;;5.57;100.00
81802;BME280;71199;52.490;5.448;2023-12-20T02:28:04;101501.31;;;5.61;100.00
81802;BME280;71199;52.490;5.448;2023-12-20T02:30:30;101507.00;;;5.70;100.00
81802;BME280;71199;52.490;5.448;2023-12-20T02:32:56;101502.78;;;5.77;100.00
81802;BME280;71199;52.490;5.448;2023-12-20T02:35:21;101509.97;;;5.89;100.00
81802;BME280;71199;52.490;5.448;2023-12-20T02:37:46;101503.88;;;5.85;100.00
81802;BME280;71199;52.490;5.448;2023-12-20T02:40:12;101493.84;;;5.86;100.00
81802;BME280;71199;52.490;5.448;2023-12-20T02:42:37;101507.22;;;5.89;100.00
81802;BME280;71199;52.490;5.448;2023-12-20T02:45:03;101502.13;;;5.84;100.00
81802;BME280;71199;52.490;5.448;2023-12-20T02:47:28;101504.75;;;5.86;100.00
81802;BME280;71199;52.490;5.448;2023-12-20T02:49:55;101496.31;;;5.89;100.00
81802;BME280;71199;52.490;5.448;2023-12-20T02:52:21;101497.91;;;5.92;100.00
81802;BME280;71199;52.490;5.448;2023-12-20T02:54:46;101492.97;;;5.85;100.00
81802;BME280;71199;52.490;5.448;2023-12-20T02:57:12;101484.78;;;5.85;100.00
81802;BME280;71199;52.490;5.448;2023-12-20T02:59:37;101470.16;;;5.86;100.00
81802;BME280;71199;52.490;5.448;2023-12-20T03:02:02;101469.28;;;5.86;100.00
81802;BME280;71199;52.490;5.448;2023-12-20T03:04:28;101473.50;;;5.90;100.00
81802;BME280;71199;52.490;5.448;2023-12-20T03:06:53;101469.50;;;5.94;100.00
81802;BME280;71199;52.490;5.448;2023-12-20T03:09:19;101469.41;;;5.84;100.00
81802;BME280;71199;52.490;5.448;2023-12-20T03:11:44;101470.28;;;5.85;100.00
81802;BME280;71199;52.490;5.448;2023-12-20T03:14:09;101472.53;;;5.80;100.00
81802;BME280;71199;52.490;5.448;2023-12-20T03:16:35;101468.94;;;5.79;100.00
81802;BME280;71199;52.490;5.448;2023-12-20T03:19:00;101471.53;;;5.70;100.00
81802;BME280;71199;52.490;5.448;2023-12-20T03:21:25;101468.97;;;5.57;100.00
81802;BME280;71199;52.490;5.448;2023-12-20T03:23:51;101476.06;;;5.48;100.00
81802;BME280;71199;52.490;5.448;2023-12-20T03:26:16;101476.41;;;5.43;100.00
81802;BME280;71199;52.490;5.448;2023-12-20T03:28:42;101472.44;;;5.48;100.00
81802;BME280;71199;52.490;5.448;2023-12-20T03:31:07;101479.59;;;5.60;100.00
81802;BME280;71199;52.490;5.448;2023-12-20T03:33:34;101477.28;;;5.67;100.00
81802;BME280;71199;52.490;5.448;2023-12-20T03:35:59;101480.75;;;5.69;100.00
81802;BME280;71199;52.490;5.448;2023-12-20T03:38:25;101471.44;;;5.60;100.00
81802;BME280;71199;52.490;5.448;2023-12-20T03:40:50;101488.91;;;5.69;100.00
81802;BME280;71199;52.490;5.448;2023-12-20T03:43:16;101489.91;;;5.79;100.00
81802;BME280;71199;52.490;5.448;2023-12-20T03:45:42;101499.78;;;5.91;100.00
81802;BME280;71199;52.490;5.448;2023-12-20T03:48:07;101490.13;;;5.98;100.00
81802;BME280;71199;52.490;5.448;2023-12-20T03:50:33;101492.59;;;5.90;100.00
81802;BME280;71199;52.490;5.448;2023-12-20T03:52:58;101486.50;;;5.86;100.00
81802;BME280;71199;52.490;5.448;2023-12-20T03:55:24;101483.94;;;5.74;100.00
81802;BME280;71199;52.490;5.448;2023-12-20T03:57:49;101473.06;;;5.62;100.00
81802;BME280;71199;52.490;5.448;2023-12-20T04:00:15;101486.44;;;5.65;100.00
81802;BME280;71199;52.490;5.448;2023-12-20T04:02:41;101465.00;;;5.61;100.00
81802;BME280;71199;52.490;5.448;2023-12-20T04:05:08;101448.75;;;5.59;100.00
81802;BME280;71199;52.490;5.448;2023-12-20T04:07:33;101462.38;;;5.59;100.00
81802;BME280;71199;52.490;5.448;2023-12-20T04:09:59;101470.97;;;5.55;100.00
81802;BME280;71199;52.490;5.448;2023-12-20T04:12:24;101464.88;;;5.62;100.00
81802;BME280;71199;52.490;5.448;2023-12-20T04:14:50;101464.88;;;5.62;100.00
81802;BME280;71199;52.490;5.448;2023-12-20T04:17:15;101459.28;;;5.75;100.00
81802;BME280;71199;52.490;5.448;2023-12-20T04:19:42;101449.22;;;5.87;100.00
81802;BME280;71199;52.490;5.448;2023-12-20T04:22:07;101455.13;;;5.92;100.00
81802;BME280;71199;52.490;5.448;2023-12-20T04:24:32;101447.69;;;5.94;100.00
81802;BME280;71199;52.490;5.448;2023-12-20T04:26:58;101456.00;;;5.93;100.00
81802;BME280;71199;52.490;5.448;2023-12-20T04:29:23;101444.00;;;5.95;100.00
81802;BME280;71199;52.490;5.448;2023-12-20T04:31:48;101440.75;;;5.90;100.00
81802;BME280;71199;52.490;5.448;2023-12-20T04:34:16;101443.03;;;5.85;100.00
81802;BME280;71199;52.490;5.448;2023-12-20T04:36:42;101448.69;;;5.93;100.00
81802;BME280;71199;52.490;5.448;2023-12-20T04:39:07;101440.75;;;5.90;100.00
81802;BME280;71199;52.490;5.448;2023-12-20T04:41:33;101435.56;;;5.87;100.00
81802;BME280;71199;52.490;5.448;2023-12-20T04:43:58;101439.78;;;5.91;100.00
81802;BME280;71199;52.490;5.448;2023-12-20T04:46:23;101439.03;;;5.89;100.00
81802;BME280;71199;52.490;5.448;2023-12-20T04:48:49;101438.88;;;5.91;100.00
81802;BME280;71199;52.490;5.448;2023-12-20T04:51:15;101439.50;;;5.94;100.00
81802;BME280;71199;52.490;5.448;2023-12-20T04:53:40;101446.06;;;6.03;100.00
81802;BME280;71199;52.490;5.448;2023-12-20T04:56:05;101437.53;;;6.08;100.00
81802;BME280;71199;52.490;5.448;2023-12-20T04:58:31;101436.72;;;6.17;100.00
81802;BME280;71199;52.490;5.448;2023-12-20T05:00:56;101444.47;;;6.12;100.00
81802;BME280;71199;52.490;5.448;2023-12-20T05:03:22;101434.91;;;6.06;100.00
81802;BME280;71199;52.490;5.448;2023-12-20T05:05:47;101432.94;;;6.08;100.00
81802;BME280;71199;52.490;5.448;2023-12-20T05:08:13;101444.97;;;6.05;100.00
81802;BME280;71199;52.490;5.448;2023-12-20T05:10:38;101435.03;;;6.04;100.00
81802;BME280;71199;52.490;5.448;2023-12-20T05:13:05;101441.75;;;6.00;100.00
81802;BME280;71199;52.490;5.448;2023-12-20T05:15:31;101432.81;;;6.10;100.00
81802;BME280;71199;52.490;5.448;2023-12-20T05:17:56;101437.53;;;6.08;100.00
81802;BME280;71199;52.490;5.448;2023-12-20T05:20:21;101433.88;;;6.18;100.00
81802;BME280;71199;52.490;5.448;2023-12-20T05:22:47;101432.50;;;6.24;100.00
81802;BME280;71199;52.490;5.448;2023-12-20T05:25:12;101433.03;;;6.18;100.00
81802;BME280;71199;52.490;5.448;2023-12-20T05:27:38;101431.09;;;6.30;99.85
81802;BME280;71199;52.490;5.448;2023-12-20T05:30:03;101440.69;;;6.24;100.00
81802;BME280;71199;52.490;5.448;2023-12-20T05:32:29;101441.63;;;6.34;100.00
81802;BME280;71199;52.490;5.448;2023-12-20T05:34:55;101430.56;;;6.36;100.00
81802;BME280;71199;52.490;5.448;2023-12-20T05:37:20;101434.91;;;6.38;99.69
81802;BME280;71199;52.490;5.448;2023-12-20T05:39:46;101425.84;;;6.38;99.58
81802;BME280;71199;52.490;5.448;2023-12-20T05:42:11;101430.31;;;6.39;99.90
81802;BME280;71199;52.490;5.448;2023-12-20T05:44:36;101436.28;;;6.33;100.00
81802;BME280;71199;52.490;5.448;2023-12-20T05:47:02;101430.56;;;6.36;99.84
81802;BME280;71199;52.490;5.448;2023-12-20T05:49:27;101424.56;;;6.42;99.20
81802;BME280;71199;52.490;5.448;2023-12-20T05:51:53;101422.84;;;6.41;99.92
81802;BME280;71199;52.490;5.448;2023-12-20T05:54:19;101420.53;;;6.36;99.84
81802;BME280;71199;52.490;5.448;2023-12-20T05:56:44;101428.31;;;6.41;99.25
81802;BME280;71199;52.490;5.448;2023-12-20T05:59:09;101419.25;;;6.40;99.42
81802;BME280;71199;52.490;5.448;2023-12-20T06:01:35;101414.38;;;6.44;99.07
81802;BME280;71199;52.490;5.448;2023-12-20T06:04:00;101423.72;;;6.41;99.30
81802;BME280;71199;52.490;5.448;2023-12-20T06:06:25;101407.63;;;6.38;99.91
81802;BME280;71199;52.490;5.448;2023-12-20T06:08:51;101399.00;;;6.43;99.82
81802;BME280;71199;52.490;5.448;2023-12-20T06:11:16;101405.09;;;6.47;99.16
81802;BME280;71199;52.490;5.448;2023-12-20T06:13:41;101402.47;;;6.45;99.72
81802;BME280;71199;52.490;5.448;2023-12-20T06:16:07;101402.88;;;6.40;99.56
81802;BME280;71199;52.490;5.448;2023-12-20T06:18:32;101409.06;;;6.42;99.71
81802;BME280;71199;52.490;5.448;2023-12-20T06:20:58;101410.53;;;6.47;99.70
81802;BME280;71199;52.490;5.448;2023-12-20T06:23:23;101407.09;;;6.44;100.00
81802;BME280;71199;52.490;5.448;2023-12-20T06:25:49;101412.25;;;6.48;99.77
81802;BME280;71199;52.490;5.448;2023-12-20T06:28:14;101415.72;;;6.50;99.46
81802;BME280;71199;52.490;5.448;2023-12-20T06:30:40;101422.66;;;6.54;99.47
81802;BME280;71199;52.490;5.448;2023-12-20T06:33:05;101421.06;;;6.51;99.82
81802;BME280;71199;52.490;5.448;2023-12-20T06:35:32;101421.06;;;6.51;99.69
81802;BME280;71199;52.490;5.448;2023-12-20T06:37:57;101417.72;;;6.48;100.00
81802;BME280;71199;52.490;5.448;2023-12-20T06:40:23;101421.59;;;6.45;100.00
81802;BME280;71199;52.490;5.448;2023-12-20T06:42:48;101413.00;;;6.50;99.82
81802;BME280;71199;52.490;5.448;2023-12-20T06:45:14;101421.91;;;6.52;99.98
81802;BME280;71199;52.490;5.448;2023-12-20T06:47:39;101404.69;;;6.51;100.00
81802;BME280;71199;52.490;5.448;2023-12-20T06:50:05;101409.72;;;6.56;99.51
81802;BME280;71199;52.490;5.448;2023-12-20T06:52:31;101404.72;;;6.61;99.72
81802;BME280;71199;52.490;5.448;2023-12-20T06:54:56;101397.25;;;6.63;99.03
81802;BME280;71199;52.490;5.448;2023-12-20T06:57:21;101399.72;;;6.66;99.18
81802;BME280;71199;52.490;5.448;2023-12-20T06:59:47;101405.44;;;6.63;99.20
81802;BME280;71199;52.490;5.448;2023-12-20T07:02:12;101397.41;;;6.61;99.69
81802;BME280;71199;52.490;5.448;2023-12-20T07:04:41;101393.41;;;6.65;99.32
81802;BME280;71199;52.490;5.448;2023-12-20T07:07:07;101393.94;;;6.59;99.59
81802;BME280;71199;52.490;5.448;2023-12-20T07:09:32;101397.53;;;6.60;99.86
81802;BME280;71199;52.490;5.448;2023-12-20T07:11:58;101394.16;;;6.68;99.46
81802;BME280;71199;52.490;5.448;2023-12-20T07:14:23;101381.03;;;6.61;99.84
81802;BME280;71199;52.490;5.448;2023-12-20T07:16:49;101366.66;;;6.59;99.54
81802;BME280;71199;52.490;5.448;2023-12-20T07:19:14;101370.50;;;6.36;100.00
81802;BME280;71199;52.490;5.448;2023-12-20T07:21:39;101371.78;;;6.32;100.00
81802;BME280;71199;52.490;5.448;2023-12-20T07:24:05;101371.44;;;6.25;100.00
81802;BME280;71199;52.490;5.448;2023-12-20T07:26:30;101379.50;;;6.27;100.00
81802;BME280;71199;52.490;5.448;2023-12-20T07:28:56;101371.97;;;6.19;100.00
81802;BME280;71199;52.490;5.448;2023-12-20T07:31:21;101377.09;;;6.33;100.00
81802;BME280;71199;52.490;5.448;2023-12-20T07:33:46;101384.72;;;6.51;100.00
81802;BME280;71199;52.490;5.448;2023-12-20T07:36:12;101381.28;;;6.58;99.95
81802;BME280;71199;52.490;5.448;2023-12-20T07:38:37;101391.41;;;6.68;99.48
81802;BME280;71199;52.490;5.448;2023-12-20T07:41:03;101394.47;;;6.74;99.10
81802;BME280;71199;52.490;5.448;2023-12-20T07:43:28;101397.63;;;6.79;98.94
81802;BME280;71199;52.490;5.448;2023-12-20T07:45:54;101401.50;;;6.77;99.33
81802;BME280;71199;52.490;5.448;2023-12-20T07:48:19;101411.78;;;6.84;98.28
81802;BME280;71199;52.490;5.448;2023-12-20T07:50:44;101415.09;;;6.88;98.27
81802;BME280;71199;52.490;5.448;2023-12-20T07:53:10;101418.69;;;6.89;98.63
81802;BME280;71199;52.490;5.448;2023-12-20T07:55:35;101410.63;;;6.87;98.26
81802;BME280;71199;52.490;5.448;2023-12-20T07:58:00;101420.81;;;6.85;98.06
81802;BME280;71199;52.490;5.448;2023-12-20T08:00:26;101424.56;;;6.84;98.46
81802;BME280;71199;52.490;5.448;2023-12-20T08:02:52;101424.16;;;6.89;98.51
81802;BME280;71199;52.490;5.448;2023-12-20T08:05:17;101424.75;;;6.92;98.43
81802;BME280;71199;52.490;5.448;2023-12-20T08:07:43;101420.28;;;6.91;99.03
81802;BME280;71199;52.490;5.448;2023-12-20T08:10:08;101424.28;;;6.87;98.94
81802;BME280;71199;52.490;5.448;2023-12-20T08:12:34;101423.31;;;6.88;99.19
81802;BME280;71199;52.490;5.448;2023-12-20T08:14:59;101421.56;;;6.87;98.37
81802;BME280;71199;52.490;5.448;2023-12-20T08:17:25;101416.41;;;6.94;98.46
81802;BME280;71199;52.490;5.448;2023-12-20T08:19:51;101417.56;;;6.91;98.49
81802;BME280;71199;52.490;5.448;2023-12-20T08:22:16;101412.81;;;6.93;97.86
81802;BME280;71199;52.490;5.448;2023-12-20T08:24:42;101402.63;;;6.95;97.24
81802;BME280;71199;52.490;5.448;2023-12-20T08:27:07;101404.50;;;6.95;96.62
81802;BME280;71199;52.490;5.448;2023-12-20T08:29:34;101404.69;;;7.03;96.43
81802;BME280;71199;52.490;5.448;2023-12-20T08:32:00;101399.94;;;7.05;96.05
81802;BME280;71199;52.490;5.448;2023-12-20T08:34:25;101392.59;;;7.05;95.35
81802;BME280;71199;52.490;5.448;2023-12-20T08:36:51;101389.31;;;7.12;95.57
81802;BME280;71199;52.490;5.448;2023-12-20T08:39:19;101407.00;;;7.07;95.97
81802;BME280;71199;52.490;5.448;2023-12-20T08:41:44;101401.84;;;7.14;95.78
81802;BME280;71199;52.490;5.448;2023-12-20T08:44:10;101401.56;;;7.17;95.68
81802;BME280;71199;52.490;5.448;2023-12-20T08:46:35;101412.63;;;7.16;96.09
81802;BME280;71199;52.490;5.448;2023-12-20T08:49:01;101414.38;;;7.17;95.76
81802;BME280;71199;52.490;5.448;2023-12-20T08:51:27;101412.38;;;7.19;95.07
81802;BME280;71199;52.490;5.448;2023-12-20T08:53:53;101400.56;;;7.18;95.58
81802;BME280;71199;52.490;5.448;2023-12-20T08:56:18;101408.75;;;7.18;95.33
81802;BME280;71199;52.490;5.448;2023-12-20T08:58:45;101412.09;;;7.22;95.88
81802;BME280;71199;52.490;5.448;2023-12-20T09:01:10;101404.63;;;7.24;95.23
81802;BME280;71199;52.490;5.448;2023-12-20T09:03:36;101411.53;;;7.28;95.40
81802;BME280;71199;52.490;5.448;2023-12-20T09:06:01;101399.44;;;7.31;94.69
81802;BME280;71199;52.490;5.448;2023-12-20T09:08:27;101399.06;;;7.35;95.04
81802;BME280;71199;52.490;5.448;2023-12-20T09:10:52;101408.25;;;7.34;95.27
81802;BME280;71199;52.490;5.448;2023-12-20T09:13:17;101405.94;;;7.30;95.65
81802;BME280;71199;52.490;5.448;2023-12-20T09:15:43;101411.84;;;7.35;95.51
81802;BME280;71199;52.490;5.448;2023-12-20T09:18:08;101410.38;;;7.31;95.88
81802;BME280;71199;52.490;5.448;2023-12-20T09:20:34;101405.28;;;7.16;96.59
81802;BME280;71199;52.490;5.448;2023-12-20T09:23:00;101413.19;;;7.10;96.28
81802;BME280;71199;52.490;5.448;2023-12-20T09:25:25;101418.22;;;7.04;97.13
81802;BME280;71199;52.490;5.448;2023-12-20T09:27:51;101421.63;;;6.97;97.60
81802;BME280;71199;52.490;5.448;2023-12-20T09:30:17;101417.75;;;6.99;97.41
81802;BME280;71199;52.490;5.448;2023-12-20T09:32:43;101421.19;;;7.01;97.93
81802;BME280;71199;52.490;5.448;2023-12-20T09:35:08;101406.13;;;7.07;97.41
81802;BME280;71199;52.490;5.448;2023-12-20T09:37:34;101414.22;;;7.09;97.13
81802;BME280;71199;52.490;5.448;2023-12-20T09:39:59;101419.50;;;7.00;97.76
81802;BME280;71199;52.490;5.448;2023-12-20T09:42:32;101409.66;;;6.98;97.77
81802;BME280;71199;52.490;5.448;2023-12-20T09:45:03;101403.94;;;7.01;98.04
81802;BME280;71199;52.490;5.448;2023-12-20T09:47:29;101416.47;;;7.03;98.21
81802;BME280;71199;52.490;5.448;2023-12-20T09:49:55;101411.78;;;7.15;97.38
81802;BME280;71199;52.490;5.448;2023-12-20T09:52:22;101429.31;;;7.43;96.32
81802;BME280;71199;52.490;5.448;2023-12-20T09:54:49;101410.63;;;7.58;94.87
81802;BME280;71199;52.490;5.448;2023-12-20T09:57:17;101426.19;;;7.67;94.87
81802;BME280;71199;52.490;5.448;2023-12-20T09:59:43;101429.81;;;7.78;94.54
81802;BME280;71199;52.490;5.448;2023-12-20T10:02:12;101431.97;;;7.84;94.48
81802;BME280;71199;52.490;5.448;2023-12-20T10:04:43;101440.47;;;7.91;93.85
81802;BME280;71199;52.490;5.448;2023-12-20T10:07:11;101441.50;;;7.90;94.02
81802;BME280;71199;52.490;5.448;2023-12-20T10:09:36;101442.50;;;7.88;93.74
81802;BME280;71199;52.490;5.448;2023-12-20T10:12:02;101433.72;;;7.85;94.25
81802;BME280;71199;52.490;5.448;2023-12-20T10:14:30;101430.56;;;7.90;94.23
81802;BME280;71199;52.490;5.448;2023-12-20T10:17:04;101427.25;;;7.76;94.02
81802;BME280;71199;52.490;5.448;2023-12-20T10:19:31;101419.47;;;7.81;94.36
81802;BME280;71199;52.490;5.448;2023-12-20T10:21:58;101421.75;;;7.86;93.91
81802;BME280;71199;52.490;5.448;2023-12-20T10:24:24;101413.56;;;7.86;93.80
81802;BME280;71199;52.490;5.448;2023-12-20T10:27:01;101415.56;;;7.84;93.78
81802;BME280;71199;52.490;5.448;2023-12-20T10:29:26;101409.97;;;7.85;94.13
81802;BME280;71199;52.490;5.448;2023-12-20T10:31:52;101402.06;;;7.82;93.97
81802;BME280;71199;52.490;5.448;2023-12-20T10:34:22;101404.63;;;7.84;93.48
81802;BME280;71199;52.490;5.448;2023-12-20T10:36:47;101413.13;;;7.91;92.89
81802;BME280;71199;52.490;5.448;2023-12-20T10:39:14;101413.13;;;7.91;92.69
81802;BME280;71199;52.490;5.448;2023-12-20T10:41:41;101407.97;;;7.97;92.59
81802;BME280;71199;52.490;5.448;2023-12-20T10:44:08;101390.97;;;8.03;92.16
81802;BME280;71199;52.490;5.448;2023-12-20T10:46:37;101397.72;;;8.09;91.64
81802;BME280;71199;52.490;5.448;2023-12-20T10:49:05;101389.69;;;8.07;91.91
81802;BME280;71199;52.490;5.448;2023-12-20T10:51:31;101398.88;;;8.06;91.76
81802;BME280;71199;52.490;5.448;2023-12-20T10:53:57;101396.72;;;8.00;91.44
81802;BME280;71199;52.490;5.448;2023-12-20T10:56:22;101390.41;;;8.10;91.25
81802;BME280;71199;52.490;5.448;2023-12-20T10:58:51;101380.88;;;8.14;91.69
81802;BME280;71199;52.490;5.448;2023-12-20T11:01:18;101385.47;;;8.23;91.14
81802;BME280;71199;52.490;5.448;2023-12-20T11:03:53;101377.00;;;8.26;90.92
81802;BME280;71199;52.490;5.448;2023-12-20T11:09:35;101375.53;;;8.41;90.66
81802;BME280;71199;52.490;5.448;2023-12-20T11:12:16;101374.22;;;8.36;90.38
81802;BME280;71199;52.490;5.448;2023-12-20T11:14:47;101373.09;;;8.38;90.67
81802;BME280;71199;52.490;5.448;2023-12-20T11:17:13;101365.16;;;8.35;90.26
81802;BME280;71199;52.490;5.448;2023-12-20T11:22:21;101363.41;;;8.54;90.84
81802;BME280;71199;52.490;5.448;2023-12-20T11:24:47;101356.25;;;8.43;90.79
81802;BME280;71199;52.490;5.448;2023-12-20T11:27:13;101358.38;;;8.39;90.84
81802;BME280;71199;52.490;5.448;2023-12-20T11:29:39;101363.13;;;8.37;91.02
81802;BME280;71199;52.490;5.448;2023-12-20T11:35:18;101360.69;;;8.24;91.48
81802;BME280;71199;52.490;5.448;2023-12-20T11:37:42;101366.63;;;8.10;91.73
81802;BME280;71199;52.490;5.448;2023-12-20T11:40:14;101360.56;;;8.06;92.25
81802;BME280;71199;52.490;5.448;2023-12-20T11:42:45;101356.09;;;8.05;92.30
81802;BME280;71199;52.490;5.448;2023-12-20T11:45:13;101352.94;;;8.00;92.28
81802;BME280;71199;52.490;5.448;2023-12-20T11:47:42;101361.72;;;8.04;92.12
81802;BME280;71199;52.490;5.448;2023-12-20T11:50:07;101352.78;;;8.02;92.59
81802;BME280;71199;52.490;5.448;2023-12-20T11:52:33;101342.41;;;7.96;92.29
81802;BME280;71199;52.490;5.448;2023-12-20T11:54:58;101344.56;;;8.02;92.52
81802;BME280;71199;52.490;5.448;2023-12-20T11:57:24;101332.06;;;7.99;92.41
81802;BME280;71199;52.490;5.448;2023-12-20T11:59:50;101325.13;;;7.95;92.76
81802;BME280;71199;52.490;5.448;2023-12-20T12:02:15;101345.44;;;7.93;93.13
81802;BME280;71199;52.490;5.448;2023-12-20T12:04:41;101359.53;;;7.88;93.21
81802;BME280;71199;52.490;5.448;2023-12-20T12:07:07;101339.09;;;7.92;93.01
81802;BME280;71199;52.490;5.448;2023-12-20T12:09:32;101341.69;;;7.94;93.20
81802;BME280;71199;52.490;5.448;2023-12-20T12:11:58;101341.56;;;7.95;93.52
81802;BME280;71199;52.490;5.448;2023-12-20T12:14:24;101326.84;;;7.96;93.08
81802;BME280;71199;52.490;5.448;2023-12-20T12:16:49;101321.97;;;8.00;93.04
81802;BME280;71199;52.490;5.448;2023-12-20T12:19:26;101320.09;;;8.00;93.34
81802;BME280;71199;52.490;5.448;2023-12-20T12:22:07;101311.72;;;8.02;93.08
81802;BME280;71199;52.490;5.448;2023-12-20T12:24:35;101320.06;;;7.91;93.90
81802;BME280;71199;52.490;5.448;2023-12-20T12:27:01;101313.47;;;7.93;94.87
81802;BME280;71199;52.490;5.448;2023-12-20T12:29:27;101312.19;;;7.97;93.69
81802;BME280;71199;52.490;5.448;2023-12-20T12:31:53;101303.38;;;7.94;93.27
81802;BME280;71199;52.490;5.448;2023-12-20T12:34:18;101299.06;;;7.91;94.10
81802;BME280;71199;52.490;5.448;2023-12-20T12:36:43;101305.25;;;7.93;94.22
81802;BME280;71199;52.490;5.448;2023-12-20T12:39:12;101303.25;;;7.95;93.69
81802;BME280;71199;52.490;5.448;2023-12-20T12:41:40;101298.31;;;7.99;93.66
81802;BME280;71199;52.490;5.448;2023-12-20T12:44:05;101295.91;;;7.96;93.87
81802;BME280;71199;52.490;5.448;2023-12-20T12:46:30;101298.50;;;7.87;95.19
81802;BME280;71199;52.490;5.448;2023-12-20T12:48:56;101296.06;;;7.84;95.25
81802;BME280;71199;52.490;5.448;2023-12-20T12:51:21;101292.75;;;7.81;95.20
81802;BME280;71199;52.490;5.448;2023-12-20T12:53:46;101288.41;;;7.88;94.88
81802;BME280;71199;52.490;5.448;2023-12-20T12:56:13;101279.47;;;7.86;93.64
81802;BME280;71199;52.490;5.448;2023-12-20T12:58:39;101278.94;;;7.82;93.46